Lumberton, Texas
Current Conditions -  °F | °C
As of 10:15 AM on Friday 19 Dec 2014 (Local Time) from KBMT Reporting Station
Light Rain Light Rain  
Wind Chill: 57°   Ceiling: 4800
Heat Index: 57°   Visibility: 10mi
Dew Point: 57°   Wind: 5mph
Humidity: 98%   Direction: 60°ENE
Pressure: 30.08"   Gusts: NA
Location:  30.27°N, 94.2°W
Report Text: KBMT 191615Z AUTO 06004KT 10SM -RA SCT005 BKN048 OVC065 14/14 A3008 RMK AO2 T01400137
Loading
Personal Weather Stations






























Interactive Weather Map New forecast layout! Learn more

10-Day Weather Forecast

Advertisements
Track Severe Weather on mobile